createdAt,value
2023-01-15T00:00:19.304Z,20.91
2023-01-15T00:02:45.826Z,20.89
2023-01-15T00:05:12.451Z,20.86
2023-01-15T00:07:38.949Z,20.84
2023-01-15T00:10:06.055Z,20.84
2023-01-15T00:12:32.519Z,20.82
2023-01-15T00:14:59.009Z,20.81
2023-01-15T00:17:25.712Z,20.79
2023-01-15T00:19:52.273Z,20.81
2023-01-15T00:22:18.735Z,20.76
2023-01-15T00:25:03.874Z,20.75
2023-01-15T00:27:39.246Z,20.73
2023-01-15T00:30:09.295Z,20.71
2023-01-15T00:32:35.806Z,20.68
2023-01-15T00:35:02.380Z,20.64
2023-01-15T00:37:28.889Z,20.66
2023-01-15T00:39:55.480Z,20.62
2023-01-15T00:42:21.984Z,20.61
2023-01-15T00:44:48.479Z,20.58
2023-01-15T00:47:15.374Z,20.58
2023-01-15T00:49:45.080Z,20.56
2023-01-15T00:52:12.725Z,20.57
2023-01-15T00:54:39.305Z,20.54
2023-01-15T00:57:05.783Z,20.52
2023-01-15T00:59:32.335Z,20.49
2023-01-15T01:01:59.099Z,20.50
2023-01-15T01:04:25.764Z,20.50
2023-01-15T01:06:52.678Z,20.49
2023-01-15T01:09:19.136Z,20.47
2023-01-15T01:11:45.707Z,20.45
2023-01-15T01:14:13.949Z,20.44
2023-01-15T01:16:42.005Z,20.44
2023-01-15T01:19:14.043Z,20.41
2023-01-15T01:21:41.524Z,20.42
2023-01-15T01:24:08.608Z,20.42
2023-01-15T01:26:35.369Z,20.40
2023-01-15T01:29:02.201Z,20.39
2023-01-15T01:31:28.769Z,20.38
2023-01-15T01:33:57.277Z,20.36
2023-01-15T01:36:34.027Z,20.32
2023-01-15T01:39:01.073Z,20.32
2023-01-15T01:41:28.544Z,20.35
2023-01-15T01:44:04.209Z,20.32
2023-01-15T01:46:33.606Z,20.29
2023-01-15T01:49:04.823Z,20.28
2023-01-15T01:51:38.332Z,20.26
2023-01-15T01:54:05.143Z,20.28
2023-01-15T01:56:35.532Z,20.25
2023-01-15T01:59:03.256Z,20.23
2023-01-15T02:01:30.348Z,20.24
2023-01-15T02:03:57.750Z,20.20
2023-01-15T02:06:27.038Z,20.18
2023-01-15T02:08:53.731Z,20.15
2023-01-15T02:11:22.773Z,20.18
2023-01-15T02:14:10.688Z,20.16
2023-01-15T02:16:37.184Z,20.16
2023-01-15T02:19:41.388Z,20.15
2023-01-15T02:22:22.242Z,20.15
2023-01-15T02:25:24.098Z,20.13
2023-01-15T02:27:57.347Z,20.12
2023-01-15T02:30:26.899Z,20.11
2023-01-15T02:32:58.885Z,20.11
2023-01-15T02:35:36.546Z,20.06
2023-01-15T02:38:08.578Z,20.07
2023-01-15T02:40:37.223Z,20.09
2023-01-15T02:43:05.374Z,20.06
2023-01-15T02:45:36.719Z,20.05
2023-01-15T02:48:09.913Z,20.05
2023-01-15T02:50:40.607Z,20.05
2023-01-15T02:53:11.153Z,20.03
2023-01-15T02:55:43.209Z,20.03
2023-01-15T02:58:14.241Z,20.03
2023-01-15T03:00:45.922Z,20.01
2023-01-15T03:03:19.248Z,20.02
2023-01-15T03:06:00.561Z,19.98
2023-01-15T03:08:27.180Z,19.99
2023-01-15T03:11:22.918Z,19.98
2023-01-15T03:14:00.647Z,19.97
2023-01-15T03:16:39.750Z,19.96
2023-01-15T03:19:06.319Z,19.95
2023-01-15T03:21:44.619Z,19.92
2023-01-15T03:24:13.231Z,19.93
2023-01-15T03:26:39.770Z,19.91
2023-01-15T03:29:08.540Z,19.92
2023-01-15T03:31:36.213Z,19.91
2023-01-15T03:34:03.393Z,19.89
2023-01-15T03:36:30.831Z,19.87
2023-01-15T03:38:58.766Z,19.88
2023-01-15T03:41:41.938Z,19.87
2023-01-15T03:44:17.932Z,19.85
2023-01-15T03:46:53.115Z,19.85
2023-01-15T03:49:31.687Z,19.86
2023-01-15T03:52:04.131Z,19.82
2023-01-15T03:54:44.925Z,19.81
2023-01-15T03:57:21.679Z,19.81
2023-01-15T03:59:55.572Z,19.79
2023-01-15T04:02:23.710Z,19.79
2023-01-15T04:04:52.393Z,19.78
2023-01-15T04:07:19.843Z,19.80
2023-01-15T04:09:46.580Z,19.78
2023-01-15T04:12:13.147Z,19.77
2023-01-15T04:14:39.835Z,19.77
2023-01-15T04:17:06.367Z,19.76
2023-01-15T04:19:32.858Z,19.76
2023-01-15T04:21:59.476Z,19.76
2023-01-15T04:24:25.985Z,19.74
2023-01-15T04:26:52.444Z,19.75
2023-01-15T04:29:19.096Z,19.73
2023-01-15T04:31:45.577Z,19.72
2023-01-15T04:34:12.032Z,19.72
2023-01-15T04:36:38.646Z,19.72
2023-01-15T04:39:05.684Z,19.72
2023-01-15T04:41:50.747Z,19.71
2023-01-15T04:44:17.252Z,19.70
2023-01-15T04:46:45.568Z,19.69
2023-01-15T04:49:14.470Z,19.68
2023-01-15T04:51:41.108Z,19.64
2023-01-15T04:54:09.561Z,19.67
2023-01-15T04:56:41.379Z,19.65
2023-01-15T04:59:08.415Z,19.64
2023-01-15T05:01:35.328Z,19.65
2023-01-15T05:04:02.681Z,19.62
2023-01-15T05:06:31.217Z,19.61
2023-01-15T05:08:58.653Z,19.62
2023-01-15T05:11:25.681Z,19.62
2023-01-15T05:13:52.468Z,19.59
2023-01-15T05:16:21.589Z,19.60
2023-01-15T05:18:48.539Z,19.59
2023-01-15T05:21:20.904Z,19.58
2023-01-15T05:23:48.445Z,19.56
2023-01-15T05:26:15.011Z,19.56
2023-01-15T05:28:41.595Z,19.55
2023-01-15T05:31:13.378Z,19.54
2023-01-15T05:33:40.006Z,19.53
2023-01-15T05:36:12.547Z,19.51
2023-01-15T05:38:40.201Z,19.52
2023-01-15T05:41:28.763Z,19.52
2023-01-15T05:43:56.971Z,19.51
2023-01-15T05:46:23.685Z,19.51
2023-01-15T05:48:50.250Z,19.49
2023-01-15T05:51:17.120Z,19.53
2023-01-15T05:53:43.906Z,19.55
2023-01-15T05:56:10.527Z,19.60
2023-01-15T05:58:37.204Z,19.65
2023-01-15T06:01:08.949Z,19.71
2023-01-15T06:03:36.807Z,19.78
2023-01-15T06:06:04.386Z,19.88
2023-01-15T06:08:30.908Z,19.96
2023-01-15T06:10:57.407Z,20.05
2023-01-15T06:13:24.173Z,20.13
2023-01-15T06:15:50.709Z,20.22
2023-01-15T06:18:17.199Z,20.29
2023-01-15T06:20:43.709Z,20.39
2023-01-15T06:23:10.160Z,20.47
2023-01-15T06:25:37.382Z,20.57
2023-01-15T06:28:05.353Z,20.63
2023-01-15T06:30:32.032Z,20.73
2023-01-15T06:32:58.563Z,20.80
2023-01-15T06:35:25.380Z,20.87
2023-01-15T06:37:52.147Z,20.94
2023-01-15T06:40:19.255Z,21.00
2023-01-15T06:43:04.717Z,21.06
2023-01-15T06:45:58.709Z,21.13
2023-01-15T06:48:26.714Z,21.19
2023-01-15T06:50:53.921Z,21.22
2023-01-15T06:53:21.546Z,21.27
2023-01-15T06:55:48.525Z,21.36
2023-01-15T06:58:15.012Z,21.38
2023-01-15T07:00:45.691Z,21.43
2023-01-15T07:03:14.832Z,21.48
2023-01-15T07:05:41.467Z,21.51
2023-01-15T07:08:08.033Z,21.53
2023-01-15T07:10:35.465Z,21.56
2023-01-15T07:13:02.093Z,21.58
2023-01-15T07:15:28.789Z,21.60
2023-01-15T07:17:56.432Z,21.63
2023-01-15T07:20:23.212Z,21.64
2023-01-15T07:22:51.177Z,21.65
2023-01-15T07:25:18.313Z,21.66
2023-01-15T07:27:47.528Z,21.67
2023-01-15T07:30:14.798Z,21.70
2023-01-15T07:32:41.773Z,21.69
2023-01-15T07:35:10.063Z,21.69
2023-01-15T07:37:36.580Z,21.71
2023-01-15T07:40:03.230Z,21.71
2023-01-15T07:42:48.003Z,21.71
2023-01-15T07:45:33.000Z,21.71
2023-01-15T07:48:17.796Z,21.71
2023-01-15T07:50:44.287Z,21.71
2023-01-15T07:53:10.708Z,21.70
2023-01-15T07:55:37.300Z,21.72
2023-01-15T07:58:03.758Z,21.70
2023-01-15T08:00:30.258Z,21.69
2023-01-15T08:02:56.793Z,21.69
2023-01-15T08:05:23.264Z,21.69
2023-01-15T08:07:50.505Z,21.66
2023-01-15T08:10:17.365Z,21.66
2023-01-15T08:13:02.276Z,21.62
2023-01-15T08:15:33.585Z,21.62
2023-01-15T08:18:00.145Z,21.60
2023-01-15T08:20:27.014Z,21.57
2023-01-15T08:22:53.727Z,21.54
2023-01-15T08:25:22.953Z,21.53
2023-01-15T08:27:49.669Z,21.51
2023-01-15T08:30:23.756Z,21.50
2023-01-15T08:32:50.438Z,21.48
2023-01-15T08:35:17.073Z,21.50
2023-01-15T08:37:46.868Z,21.48
2023-01-15T08:40:13.469Z,21.47
2023-01-15T08:42:40.627Z,21.46
2023-01-15T08:45:08.164Z,21.46
2023-01-15T08:47:34.658Z,21.45
2023-01-15T08:50:01.189Z,21.45
2023-01-15T08:52:27.747Z,21.43
2023-01-15T08:54:54.235Z,21.44
2023-01-15T08:57:20.729Z,21.43
2023-01-15T08:59:47.971Z,21.43
2023-01-15T09:02:15.098Z,21.46
2023-01-15T09:04:41.906Z,21.45
2023-01-15T09:07:08.483Z,21.45
2023-01-15T09:09:35.145Z,21.46
2023-01-15T09:12:01.707Z,21.44
2023-01-15T09:14:59.604Z,21.45
2023-01-15T09:17:14.699Z,21.46
2023-01-15T09:19:41.239Z,21.46
2023-01-15T09:22:07.734Z,21.47
2023-01-15T09:24:34.197Z,21.48
2023-01-15T09:27:00.665Z,21.48
2023-01-15T09:29:27.318Z,21.50
2023-01-15T09:31:53.740Z,21.48
2023-01-15T09:34:20.286Z,21.50
2023-01-15T09:36:46.944Z,21.51
2023-01-15T09:39:13.618Z,21.49
2023-01-15T09:42:10.734Z,21.53
2023-01-15T09:44:49.523Z,21.53
2023-01-15T09:47:26.207Z,21.56
2023-01-15T09:50:11.224Z,21.57
2023-01-15T09:52:49.950Z,21.57
2023-01-15T09:55:20.319Z,21.57
2023-01-15T09:57:51.821Z,21.57
2023-01-15T10:00:24.529Z,21.58
2023-01-15T10:02:59.036Z,21.60
2023-01-15T10:05:33.359Z,21.63
2023-01-15T10:08:21.981Z,21.60
2023-01-15T10:10:52.919Z,21.60
2023-01-15T10:13:41.383Z,21.62
2023-01-15T10:16:10.108Z,21.61
2023-01-15T10:18:36.917Z,21.61
2023-01-15T10:21:15.342Z,21.61
2023-01-15T10:24:03.665Z,21.60
2023-01-15T10:26:43.004Z,21.59
2023-01-15T10:29:23.734Z,21.60
2023-01-15T10:32:05.324Z,21.60
2023-01-15T10:34:34.790Z,21.61
2023-01-15T10:37:09.406Z,21.60
2023-01-15T10:40:02.026Z,21.61
2023-01-15T10:42:59.082Z,21.60
2023-01-15T10:45:26.897Z,21.60
2023-01-15T10:48:00.023Z,21.60
2023-01-15T10:50:27.494Z,21.60
2023-01-15T10:53:16.388Z,21.59
2023-01-15T10:55:47.303Z,21.60
2023-01-15T10:58:20.797Z,21.61
2023-01-15T11:00:52.649Z,21.63
2023-01-15T11:03:41.187Z,21.63
2023-01-15T11:06:13.853Z,21.63
2023-01-15T11:11:58.558Z,21.64
2023-01-15T11:15:03.473Z,21.64
2023-01-15T11:17:57.028Z,21.63
2023-01-15T11:20:34.695Z,21.63
2023-01-15T11:23:13.591Z,21.64
2023-01-15T11:25:52.017Z,21.65
2023-01-15T11:28:29.562Z,21.66
2023-01-15T11:30:56.166Z,21.66
2023-01-15T11:33:31.935Z,21.68
2023-01-15T11:36:05.212Z,21.70
2023-01-15T11:38:44.255Z,21.71
2023-01-15T11:41:45.874Z,21.72
2023-01-15T11:44:32.313Z,21.73
2023-01-15T11:47:17.556Z,21.74
2023-01-15T11:50:09.935Z,21.73
2023-01-15T11:52:39.989Z,21.73
2023-01-15T11:55:16.035Z,21.74
2023-01-15T11:57:42.904Z,21.73
2023-01-15T12:00:24.013Z,21.74
2023-01-15T12:02:55.067Z,21.75
2023-01-15T12:05:26.101Z,21.76
2023-01-15T12:07:58.439Z,21.75
2023-01-15T12:10:50.562Z,21.77
2023-01-15T12:13:34.831Z,21.77
2023-01-15T12:16:14.658Z,21.76
2023-01-15T12:19:05.916Z,21.79
2023-01-15T12:21:44.542Z,21.77
2023-01-15T12:24:24.910Z,21.77
2023-01-15T12:26:57.223Z,21.78
2023-01-15T12:29:31.166Z,21.77
2023-01-15T12:32:09.618Z,21.78
2023-01-15T12:34:57.700Z,21.77
2023-01-15T12:37:32.282Z,21.77
2023-01-15T12:40:02.257Z,21.76
2023-01-15T12:42:50.459Z,21.74
2023-01-15T12:45:24.146Z,21.72
2023-01-15T12:48:05.836Z,21.70
2023-01-15T12:50:44.906Z,21.67
2023-01-15T12:53:17.422Z,21.65
2023-01-15T12:56:09.744Z,21.62
2023-01-15T12:59:05.647Z,21.61
2023-01-15T13:01:50.989Z,21.59
2023-01-15T13:04:24.037Z,21.58
2023-01-15T13:06:56.782Z,21.58
2023-01-15T13:09:42.527Z,21.59
2023-01-15T13:12:14.167Z,21.58
2023-01-15T13:14:41.824Z,21.58
2023-01-15T13:17:21.257Z,21.59
2023-01-15T13:19:50.593Z,21.59
2023-01-15T13:22:22.260Z,21.61
2023-01-15T13:24:54.068Z,21.61
2023-01-15T13:27:38.473Z,21.61
2023-01-15T13:30:47.811Z,21.62
2023-01-15T13:33:36.725Z,21.63
2023-01-15T13:36:18.265Z,21.62
2023-01-15T13:38:52.407Z,21.63
2023-01-15T13:41:43.914Z,21.61
2023-01-15T13:44:25.797Z,21.62
2023-01-15T13:47:09.523Z,21.64
2023-01-15T13:49:39.709Z,21.64
2023-01-15T13:52:08.805Z,21.62
2023-01-15T13:54:41.589Z,21.62
2023-01-15T13:57:23.564Z,21.63
2023-01-15T13:59:50.794Z,21.63
2023-01-15T14:02:31.963Z,21.62
2023-01-15T14:04:58.830Z,21.62
2023-01-15T14:07:34.792Z,21.62
2023-01-15T14:10:30.815Z,21.62
2023-01-15T14:13:30.333Z,21.59
2023-01-15T14:16:17.905Z,21.59
2023-01-15T14:18:47.134Z,21.60
2023-01-15T14:21:24.791Z,21.57
2023-01-15T14:24:15.516Z,21.58
2023-01-15T14:27:16.241Z,21.56
2023-01-15T14:30:01.435Z,21.56
2023-01-15T14:32:58.371Z,21.54
2023-01-15T14:35:25.302Z,21.53
2023-01-15T14:37:57.671Z,21.55
2023-01-15T14:40:35.387Z,21.54
2023-01-15T14:43:10.527Z,21.52
2023-01-15T14:45:43.169Z,21.53
2023-01-15T14:48:34.581Z,21.52
2023-01-15T14:51:10.248Z,21.52
2023-01-15T14:53:49.197Z,21.51
2023-01-15T14:56:20.828Z,21.52
2023-01-15T14:59:03.347Z,21.51
2023-01-15T15:01:36.886Z,21.50
2023-01-15T15:04:30.081Z,21.50
2023-01-15T15:07:11.937Z,21.51
2023-01-15T15:09:45.653Z,21.53
2023-01-15T15:12:52.121Z,21.52
2023-01-15T15:15:28.029Z,21.54
2023-01-15T15:18:12.626Z,21.56
2023-01-15T15:20:41.919Z,21.57
2023-01-15T15:23:26.820Z,21.60
2023-01-15T15:26:01.773Z,21.63
2023-01-15T15:28:30.178Z,21.65
2023-01-15T15:31:01.568Z,21.67
2023-01-15T15:33:42.216Z,21.70
2023-01-15T15:36:09.383Z,21.72
2023-01-15T15:38:38.585Z,21.73
2023-01-15T15:41:10.629Z,21.74
2023-01-15T15:44:11.835Z,21.76
2023-01-15T15:46:56.679Z,21.79
2023-01-15T15:49:23.393Z,21.77
2023-01-15T15:51:56.820Z,21.79
2023-01-15T15:54:28.377Z,21.78
2023-01-15T15:57:02.927Z,21.79
2023-01-15T15:59:35.702Z,21.80
2023-01-15T16:02:20.904Z,21.80
2023-01-15T16:04:51.188Z,21.82
2023-01-15T16:07:28.226Z,21.80
2023-01-15T16:09:59.669Z,21.80
2023-01-15T16:12:30.450Z,21.81
2023-01-15T16:14:58.691Z,21.80
2023-01-15T16:17:28.871Z,21.81
2023-01-15T16:19:57.268Z,21.81
2023-01-15T16:22:24.115Z,21.82
2023-01-15T16:24:56.395Z,21.81
2023-01-15T16:27:25.231Z,21.83
2023-01-15T16:29:54.093Z,21.83
2023-01-15T16:32:28.294Z,21.84
2023-01-15T16:35:22.687Z,21.85
2023-01-15T16:37:57.666Z,21.84
2023-01-15T16:40:30.932Z,21.84
2023-01-15T16:43:16.129Z,21.84
2023-01-15T16:46:02.575Z,21.85
2023-01-15T16:48:36.756Z,21.85
2023-01-15T16:51:35.204Z,21.85
2023-01-15T16:54:04.997Z,21.87
2023-01-15T16:56:37.496Z,21.87
2023-01-15T16:59:06.139Z,21.87
2023-01-15T17:01:43.469Z,21.84
2023-01-15T17:04:41.283Z,21.87
2023-01-15T17:07:18.041Z,21.87
2023-01-15T17:09:52.325Z,21.86
2023-01-15T17:12:34.654Z,21.85
2023-01-15T17:15:16.531Z,21.87
2023-01-15T17:17:44.713Z,21.88
2023-01-15T17:20:12.802Z,21.85
2023-01-15T17:22:42.144Z,21.87
2023-01-15T17:25:32.246Z,21.85
2023-01-15T17:28:00.271Z,21.86
2023-01-15T17:30:31.299Z,21.87
2023-01-15T17:32:58.692Z,21.86
2023-01-15T17:35:31.413Z,21.86
2023-01-15T17:37:58.435Z,21.86
2023-01-15T17:40:25.588Z,21.85
2023-01-15T17:42:53.861Z,21.85
2023-01-15T17:45:24.871Z,21.88
2023-01-15T17:47:51.334Z,21.86
2023-01-15T17:50:18.180Z,21.85
2023-01-15T17:52:45.404Z,21.87
2023-01-15T17:55:39.098Z,21.85
2023-01-15T17:58:24.369Z,21.86
2023-01-15T18:01:11.442Z,21.86
2023-01-15T18:04:01.545Z,21.87
2023-01-15T18:06:28.493Z,21.86
2023-01-15T18:08:57.383Z,21.88
2023-01-15T18:11:23.868Z,21.89
2023-01-15T18:13:50.628Z,21.89
2023-01-15T18:16:17.354Z,21.89
2023-01-15T18:18:44.251Z,21.88
2023-01-15T18:21:10.747Z,21.88
2023-01-15T18:23:39.668Z,21.90
2023-01-15T18:26:07.509Z,21.89
2023-01-15T18:28:35.714Z,21.88
2023-01-15T18:31:03.095Z,21.90
2023-01-15T18:33:29.809Z,21.91
2023-01-15T18:36:12.343Z,21.89
2023-01-15T18:38:43.592Z,21.86
2023-01-15T18:41:37.738Z,21.86
2023-01-15T18:44:30.322Z,21.83
2023-01-15T18:46:59.221Z,21.80
2023-01-15T18:49:26.344Z,21.79
2023-01-15T18:52:11.471Z,21.75
2023-01-15T18:54:38.096Z,21.72
2023-01-15T18:57:05.503Z,21.69
2023-01-15T18:59:32.066Z,21.66
2023-01-15T19:01:58.993Z,21.64
2023-01-15T19:04:26.097Z,21.63
2023-01-15T19:06:53.035Z,21.61
2023-01-15T19:09:21.315Z,21.59
2023-01-15T19:11:47.884Z,21.59
2023-01-15T19:14:33.193Z,21.58
2023-01-15T19:17:17.890Z,21.57
2023-01-15T19:19:44.392Z,21.58
2023-01-15T19:22:49.265Z,21.59
2023-01-15T19:25:16.601Z,21.61
2023-01-15T19:27:43.390Z,21.61
2023-01-15T19:30:10.974Z,21.63
2023-01-15T19:32:37.445Z,21.65
2023-01-15T19:35:04.328Z,21.64
2023-01-15T19:37:32.056Z,21.66
2023-01-15T19:39:58.748Z,21.67
2023-01-15T19:42:43.773Z,21.69
2023-01-15T19:45:29.976Z,21.70
2023-01-15T19:48:15.044Z,21.70
2023-01-15T19:50:43.693Z,21.73
2023-01-15T19:53:11.236Z,21.73
2023-01-15T19:55:44.071Z,21.73
2023-01-15T19:58:11.462Z,21.75
2023-01-15T20:00:40.255Z,21.74
2023-01-15T20:03:09.875Z,21.77
2023-01-15T20:05:37.444Z,21.75
2023-01-15T20:08:04.289Z,21.76
2023-01-15T20:10:34.757Z,21.78
2023-01-15T20:13:19.605Z,21.76
2023-01-15T20:15:46.071Z,21.77
2023-01-15T20:18:13.814Z,21.77
2023-01-15T20:20:40.760Z,21.79
2023-01-15T20:23:07.313Z,21.78
2023-01-15T20:25:33.875Z,21.79
2023-01-15T20:28:00.419Z,21.78
2023-01-15T20:30:27.936Z,21.79
2023-01-15T20:32:56.072Z,21.79
2023-01-15T20:35:29.175Z,21.80
2023-01-15T20:37:55.624Z,21.78
2023-01-15T20:40:24.779Z,21.80
2023-01-15T20:43:10.848Z,21.82
2023-01-15T20:45:37.568Z,21.81
2023-01-15T20:48:13.758Z,21.80
2023-01-15T20:51:00.818Z,21.82
2023-01-15T20:53:35.748Z,21.81
2023-01-15T20:56:03.827Z,21.82
2023-01-15T20:58:30.451Z,21.80
2023-01-15T21:01:08.914Z,21.81
2023-01-15T21:03:35.997Z,21.83
2023-01-15T21:06:04.741Z,21.82
2023-01-15T21:08:33.505Z,21.84
2023-01-15T21:11:00.217Z,21.84
2023-01-15T21:13:26.885Z,21.84
2023-01-15T21:16:02.596Z,21.83
2023-01-15T21:18:30.824Z,21.84
2023-01-15T21:20:57.429Z,21.84
2023-01-15T21:23:24.795Z,21.83
2023-01-15T21:25:51.387Z,21.83
2023-01-15T21:28:17.969Z,21.84
2023-01-15T21:30:44.873Z,21.83
2023-01-15T21:33:11.690Z,21.84
2023-01-15T21:35:40.319Z,21.82
2023-01-15T21:38:08.330Z,21.84
2023-01-15T21:40:36.988Z,21.84
2023-01-15T21:43:23.184Z,21.84
2023-01-15T21:45:51.081Z,21.84
2023-01-15T21:48:18.302Z,21.83
2023-01-15T21:50:44.802Z,21.84
2023-01-15T21:53:11.301Z,21.84
2023-01-15T21:55:37.735Z,21.86
2023-01-15T21:58:04.249Z,21.87
2023-01-15T22:00:30.781Z,21.88
2023-01-15T22:02:58.420Z,21.89
2023-01-15T22:05:25.128Z,21.92
2023-01-15T22:07:51.669Z,21.93
2023-01-15T22:10:18.231Z,21.93
2023-01-15T22:12:44.747Z,21.93
2023-01-15T22:15:12.006Z,21.94
2023-01-15T22:17:38.798Z,21.94
2023-01-15T22:20:06.998Z,21.96
2023-01-15T22:25:04.960Z,21.98
2023-01-15T22:27:34.399Z,21.96
2023-01-15T22:30:01.037Z,21.93
2023-01-15T22:32:27.469Z,21.92
2023-01-15T22:34:53.958Z,21.88
2023-01-15T22:37:20.388Z,21.87
2023-01-15T22:39:47.145Z,21.81
2023-01-15T22:42:27.221Z,21.79
2023-01-15T22:44:56.103Z,21.75
2023-01-15T22:47:23.340Z,21.71
2023-01-15T22:49:49.930Z,21.68
2023-01-15T22:52:16.755Z,21.64
2023-01-15T22:54:45.085Z,21.58
2023-01-15T22:57:13.000Z,21.55
2023-01-15T22:59:39.510Z,21.51
2023-01-15T23:02:06.249Z,21.49
2023-01-15T23:04:33.032Z,21.47
2023-01-15T23:06:59.632Z,21.42
2023-01-15T23:09:26.291Z,21.40
2023-01-15T23:11:52.826Z,21.36
2023-01-15T23:14:21.371Z,21.32
2023-01-15T23:16:47.907Z,21.27
2023-01-15T23:19:14.678Z,21.23
2023-01-15T23:21:41.960Z,21.20
2023-01-15T23:24:09.062Z,21.16
2023-01-15T23:26:35.843Z,21.13
2023-01-15T23:29:02.757Z,21.10
2023-01-15T23:31:29.767Z,21.06
2023-01-15T23:33:56.775Z,21.02
2023-01-15T23:36:24.047Z,21.00
2023-01-15T23:38:50.512Z,20.97
2023-01-15T23:41:19.832Z,20.93
2023-01-15T23:44:04.732Z,20.91
2023-01-15T23:46:37.465Z,20.87
2023-01-15T23:49:07.096Z,20.84
2023-01-15T23:51:34.284Z,20.80
2023-01-15T23:54:01.609Z,20.78
2023-01-15T23:56:29.685Z,20.76
2023-01-15T23:58:57.106Z,20.73
